createdAt,value
2023-01-25T00:00:51.653Z,102377.69
2023-01-25T00:03:19.651Z,102382.78
2023-01-25T00:05:47.564Z,102373.34
2023-01-25T00:08:15.743Z,102372.47
2023-01-25T00:10:43.736Z,102350.72
2023-01-25T00:13:11.736Z,102348.09
2023-01-25T00:15:40.955Z,102343.81
2023-01-25T00:18:09.003Z,102346.31
2023-01-25T00:20:36.914Z,102351.41
2023-01-25T00:23:04.892Z,102335.84
2023-01-25T00:25:32.941Z,102337.53
2023-01-25T00:28:00.967Z,102325.41
2023-01-25T00:30:29.195Z,102315.81
2023-01-25T00:33:07.579Z,102310.63
2023-01-25T00:35:36.004Z,102309.78
2023-01-25T00:38:15.217Z,102304.56
2023-01-25T00:40:43.047Z,102305.41
2023-01-25T00:43:11.037Z,102300.97
2023-01-25T00:45:39.021Z,102282.81
2023-01-25T00:48:08.507Z,102281.91
2023-01-25T00:50:38.305Z,102277.53
2023-01-25T00:53:06.201Z,102268.00
2023-01-25T00:55:34.153Z,102257.59
2023-01-25T00:58:02.256Z,102260.19
2023-01-25T01:00:30.311Z,102262.75
2023-01-25T01:02:58.211Z,102261.88
2023-01-25T01:05:29.280Z,102269.59
2023-01-25T01:07:57.642Z,102264.31
2023-01-25T01:10:25.576Z,102266.84
2023-01-25T01:12:53.556Z,102275.44
2023-01-25T01:15:21.631Z,102278.09
2023-01-25T01:17:49.539Z,102278.88
2023-01-25T01:20:17.827Z,102276.28
2023-01-25T01:22:47.099Z,102276.28
2023-01-25T01:25:15.078Z,102274.47
2023-01-25T01:27:42.995Z,102265.84
2023-01-25T01:30:12.308Z,102264.09
2023-01-25T01:32:40.508Z,102255.44
2023-01-25T01:35:09.596Z,102247.53
2023-01-25T01:37:37.812Z,102243.25
2023-01-25T01:40:10.511Z,102244.06
2023-01-25T01:43:00.374Z,102231.00
2023-01-25T01:46:00.177Z,102232.63
2023-01-25T01:48:40.709Z,102231.72
2023-01-25T01:51:17.572Z,102221.25
2023-01-25T01:53:52.027Z,102235.88
2023-01-25T01:56:28.503Z,102218.56
2023-01-25T01:58:59.443Z,102228.75
2023-01-25T02:01:27.733Z,102220.13
2023-01-25T02:03:56.721Z,102211.41
2023-01-25T02:06:33.081Z,102204.56
2023-01-25T02:09:02.909Z,102210.53
2023-01-25T02:11:33.892Z,102205.31
2023-01-25T02:14:02.966Z,102198.34
2023-01-25T02:16:30.900Z,102174.09
2023-01-25T02:19:02.208Z,102169.78
2023-01-25T02:21:38.764Z,102166.19
2023-01-25T02:24:11.867Z,102161.94
2023-01-25T02:26:41.475Z,102164.41
2023-01-25T02:29:10.741Z,102163.44
2023-01-25T02:31:38.716Z,102163.38
2023-01-25T02:34:06.766Z,102163.31
2023-01-25T02:36:36.224Z,102158.22
2023-01-25T02:39:07.243Z,102148.56
2023-01-25T02:41:36.812Z,102145.06
2023-01-25T02:44:09.755Z,102139.75
2023-01-25T02:46:39.545Z,102135.47
2023-01-25T02:49:10.036Z,102138.84
2023-01-25T02:51:40.760Z,102149.13
2023-01-25T02:54:10.000Z,102141.38
2023-01-25T02:56:38.373Z,102131.75
2023-01-25T02:59:07.927Z,102133.44
2023-01-25T03:01:36.622Z,102139.50
2023-01-25T03:04:05.464Z,102134.25
2023-01-25T03:06:33.961Z,102139.34
2023-01-25T03:09:03.436Z,102130.75
2023-01-25T03:11:31.384Z,102126.38
2023-01-25T03:13:59.248Z,102116.88
2023-01-25T03:16:28.712Z,102109.09
2023-01-25T03:18:57.336Z,102109.00
2023-01-25T03:21:25.383Z,102111.53
2023-01-25T03:23:57.410Z,102100.25
2023-01-25T03:26:27.269Z,102093.31
2023-01-25T03:28:55.264Z,102100.19
2023-01-25T03:31:23.389Z,102090.59
2023-01-25T03:33:52.778Z,102080.25
2023-01-25T03:36:20.780Z,102087.97
2023-01-25T03:38:48.802Z,102074.19
2023-01-25T03:41:16.682Z,102081.84
2023-01-25T03:43:44.644Z,102078.34
2023-01-25T03:46:12.491Z,102079.25
2023-01-25T03:48:40.420Z,102079.09
2023-01-25T03:51:10.465Z,102058.31
2023-01-25T03:53:38.359Z,102048.84
2023-01-25T03:56:09.609Z,102047.97
2023-01-25T03:58:38.617Z,102054.81
2023-01-25T04:01:08.789Z,102054.75
2023-01-25T04:03:36.860Z,102039.22
2023-01-25T04:06:06.768Z,102052.16
2023-01-25T04:08:36.481Z,102050.41
2023-01-25T04:11:06.927Z,102046.03
2023-01-25T04:13:36.730Z,102044.25
2023-01-25T04:16:05.223Z,102035.69
2023-01-25T04:18:33.371Z,102041.72
2023-01-25T04:21:01.284Z,102024.47
2023-01-25T04:23:29.214Z,102035.78
2023-01-25T04:26:00.048Z,102025.25
2023-01-25T04:28:29.587Z,102022.69
2023-01-25T04:30:58.030Z,102026.13
2023-01-25T04:33:26.659Z,102030.50
2023-01-25T04:35:54.592Z,102021.78
2023-01-25T04:38:23.313Z,102017.44
2023-01-25T04:40:52.084Z,102021.69
2023-01-25T04:43:22.799Z,102039.78
2023-01-25T04:45:50.856Z,102027.78
2023-01-25T04:48:19.132Z,102026.94
2023-01-25T04:50:47.067Z,102026.94
2023-01-25T04:53:15.203Z,102021.69
2023-01-25T04:55:47.580Z,102018.16
2023-01-25T04:58:16.358Z,102013.78
2023-01-25T05:00:45.775Z,102018.06
2023-01-25T05:03:13.691Z,102003.44
2023-01-25T05:05:46.597Z,102020.78
2023-01-25T05:08:14.878Z,102017.25
2023-01-25T05:10:42.748Z,102006.84
2023-01-25T05:13:10.741Z,101987.78
2023-01-25T05:15:38.635Z,101997.28
2023-01-25T05:18:08.127Z,101998.13
2023-01-25T05:20:36.193Z,102006.78
2023-01-25T05:23:04.295Z,101967.91
2023-01-25T05:25:49.821Z,101998.03
2023-01-25T05:28:17.751Z,101975.66
2023-01-25T05:30:48.240Z,101977.38
2023-01-25T05:33:17.588Z,101984.34
2023-01-25T05:35:45.655Z,101961.84
2023-01-25T05:38:13.634Z,101962.72
2023-01-25T05:40:41.555Z,101979.13
2023-01-25T05:43:09.814Z,101981.78
2023-01-25T05:45:37.701Z,101985.28
2023-01-25T05:48:05.948Z,101980.97
2023-01-25T05:50:35.273Z,101977.50
2023-01-25T05:53:03.172Z,101974.09
2023-01-25T05:55:31.159Z,101969.81
2023-01-25T05:57:59.060Z,101974.03
2023-01-25T06:00:27.166Z,101963.59
2023-01-25T06:02:56.924Z,101968.00
2023-01-25T06:05:25.002Z,101965.34
2023-01-25T06:07:54.327Z,101966.13
2023-01-25T06:10:22.315Z,101944.56
2023-01-25T06:12:50.222Z,101946.31
2023-01-25T06:15:18.396Z,101951.56
2023-01-25T06:17:46.328Z,101950.66
2023-01-25T06:20:14.400Z,101961.03
2023-01-25T06:22:42.444Z,101955.78
2023-01-25T06:25:12.413Z,101949.81
2023-01-25T06:27:40.528Z,101940.41
2023-01-25T06:30:10.347Z,101937.69
2023-01-25T06:32:38.503Z,101937.84
2023-01-25T06:35:07.334Z,101943.81
2023-01-25T06:37:35.427Z,101938.63
2023-01-25T06:40:03.391Z,101936.88
2023-01-25T06:42:32.760Z,101936.94
2023-01-25T06:45:00.847Z,101933.41
2023-01-25T06:47:28.688Z,101929.81
2023-01-25T06:49:56.615Z,101937.66
2023-01-25T06:52:24.550Z,101931.63
2023-01-25T06:54:52.529Z,101928.97
2023-01-25T06:57:20.427Z,101934.16
2023-01-25T06:59:49.905Z,101932.44
2023-01-25T07:02:18.027Z,101926.44
2023-01-25T07:04:45.961Z,101922.97
2023-01-25T07:07:13.973Z,101908.94
2023-01-25T07:09:41.979Z,101915.06
2023-01-25T07:12:09.971Z,101927.16
2023-01-25T07:14:37.823Z,101930.66
2023-01-25T07:17:07.082Z,101927.16
2023-01-25T07:19:35.050Z,101922.75
2023-01-25T07:22:03.286Z,101924.50
2023-01-25T07:24:31.437Z,101924.50
2023-01-25T07:26:59.575Z,101927.84
2023-01-25T07:29:27.451Z,101920.00
2023-01-25T07:31:55.364Z,101925.25
2023-01-25T07:34:24.635Z,101914.78
2023-01-25T07:36:52.657Z,101900.84
2023-01-25T07:39:20.563Z,101904.41
2023-01-25T07:41:48.484Z,101898.28
2023-01-25T07:44:16.431Z,101888.63
2023-01-25T07:46:44.409Z,101885.19
2023-01-25T07:49:12.346Z,101887.78
2023-01-25T07:51:41.744Z,101879.06
2023-01-25T07:54:12.121Z,101891.19
2023-01-25T07:56:40.747Z,101879.06
2023-01-25T07:59:09.422Z,101870.44
2023-01-25T08:01:37.661Z,101865.19
2023-01-25T08:04:06.499Z,101873.75
2023-01-25T08:06:39.151Z,101863.25
2023-01-25T08:09:12.081Z,101866.72
2023-01-25T08:11:40.338Z,101864.09
2023-01-25T08:14:09.132Z,101848.50
2023-01-25T08:16:37.114Z,101862.38
2023-01-25T08:19:05.388Z,101858.84
2023-01-25T08:21:35.590Z,101853.59
2023-01-25T08:24:05.949Z,101849.31
2023-01-25T08:26:36.660Z,101839.63
2023-01-25T08:29:05.392Z,101837.03
2023-01-25T08:31:36.143Z,101826.50
2023-01-25T08:34:05.347Z,101831.72
2023-01-25T08:36:33.731Z,101834.31
2023-01-25T08:39:04.343Z,101835.97
2023-01-25T08:41:34.171Z,101848.84
2023-01-25T08:44:03.432Z,101843.59
2023-01-25T08:46:33.309Z,101839.22
2023-01-25T08:49:02.307Z,101826.22
2023-01-25T08:51:31.729Z,101827.09
2023-01-25T08:54:03.893Z,101811.41
2023-01-25T08:56:31.887Z,101813.84
2023-01-25T08:58:59.833Z,101824.25
2023-01-25T09:01:29.202Z,101816.44
2023-01-25T09:03:57.219Z,101798.25
2023-01-25T09:06:25.441Z,101801.66
2023-01-25T09:08:53.427Z,101802.47
2023-01-25T09:11:23.505Z,101798.88
2023-01-25T09:13:51.858Z,101785.06
2023-01-25T09:16:29.097Z,101776.34
2023-01-25T09:19:01.164Z,101782.41
2023-01-25T09:21:30.519Z,101779.75
2023-01-25T09:24:07.464Z,101772.84
2023-01-25T09:26:37.763Z,101770.25
2023-01-25T09:29:08.115Z,101759.91
2023-01-25T09:31:36.636Z,101767.66
2023-01-25T09:34:06.171Z,101760.63
2023-01-25T09:36:34.124Z,101765.06
2023-01-25T09:39:02.006Z,101760.72
2023-01-25T09:41:47.643Z,101749.50
2023-01-25T09:44:30.501Z,101768.41
2023-01-25T09:47:01.400Z,101756.28
2023-01-25T09:49:50.979Z,101737.25
2023-01-25T09:52:39.621Z,101733.78
2023-01-25T09:55:14.783Z,101725.00
2023-01-25T09:57:44.982Z,101724.94
2023-01-25T10:00:19.051Z,101732.75
2023-01-25T10:02:52.014Z,101732.69
2023-01-25T10:05:24.811Z,101735.22
2023-01-25T10:07:59.523Z,101729.22
2023-01-25T10:10:33.923Z,101735.22
2023-01-25T10:13:04.180Z,101730.00
2023-01-25T10:15:39.271Z,101726.50
2023-01-25T10:18:18.362Z,101723.94
2023-01-25T10:20:53.214Z,101719.53
2023-01-25T10:23:37.919Z,101721.41
2023-01-25T10:26:14.637Z,101717.00
2023-01-25T10:28:49.016Z,101739.63
2023-01-25T10:31:20.202Z,101730.13
2023-01-25T10:33:50.029Z,101712.84
2023-01-25T10:36:24.710Z,101717.19
2023-01-25T10:38:59.111Z,101697.22
2023-01-25T10:41:33.956Z,101701.47
2023-01-25T10:44:15.923Z,101691.88
2023-01-25T10:46:48.471Z,101691.00
2023-01-25T10:49:24.349Z,101682.25
2023-01-25T10:51:53.700Z,101683.13
2023-01-25T10:54:24.099Z,101669.25
2023-01-25T10:56:53.512Z,101658.00
2023-01-25T10:59:25.595Z,101662.31
2023-01-25T11:01:53.916Z,101682.19
2023-01-25T11:04:43.596Z,101670.13
2023-01-25T11:07:27.637Z,101664.84
2023-01-25T11:09:55.930Z,101678.69
2023-01-25T11:12:23.910Z,101661.38
2023-01-25T11:14:52.128Z,101676.16
2023-01-25T11:17:27.063Z,101672.53
2023-01-25T11:20:26.976Z,101669.94
2023-01-25T11:22:58.426Z,101663.75
2023-01-25T11:25:29.000Z,101663.81
2023-01-25T11:28:12.184Z,101681.94
2023-01-25T11:30:40.219Z,101682.81
2023-01-25T11:33:14.877Z,101675.91
2023-01-25T11:36:00.016Z,101668.94
2023-01-25T11:38:30.013Z,101666.34
2023-01-25T11:41:07.329Z,101676.94
2023-01-25T11:44:01.543Z,101662.25
2023-01-25T11:46:42.301Z,101667.44
2023-01-25T11:49:23.037Z,101658.78
2023-01-25T11:52:00.039Z,101667.63
2023-01-25T11:54:54.569Z,101657.16
2023-01-25T11:57:38.805Z,101658.97
2023-01-25T12:00:36.205Z,101644.28
2023-01-25T12:03:36.452Z,101658.22
2023-01-25T12:06:13.654Z,101643.50
2023-01-25T12:09:05.923Z,101647.88
2023-01-25T12:11:50.064Z,101640.00
2023-01-25T12:14:28.528Z,101632.97
2023-01-25T12:17:09.741Z,101640.72
2023-01-25T12:20:08.206Z,101638.16
2023-01-25T12:22:54.787Z,101627.88
2023-01-25T12:25:31.197Z,101625.16
2023-01-25T12:28:15.018Z,101625.09
2023-01-25T12:30:53.933Z,101616.44
2023-01-25T12:33:26.524Z,101608.63
2023-01-25T12:36:02.112Z,101611.28
2023-01-25T12:38:38.931Z,101605.22
2023-01-25T12:41:15.101Z,101612.94
2023-01-25T12:43:49.830Z,101612.16
2023-01-25T12:46:35.993Z,101608.78
2023-01-25T12:49:15.114Z,101610.47
2023-01-25T12:51:43.973Z,101610.41
2023-01-25T12:54:18.605Z,101598.97
2023-01-25T12:56:54.862Z,101596.34
2023-01-25T12:59:32.858Z,101581.78
2023-01-25T13:02:12.757Z,101573.94
2023-01-25T13:04:54.380Z,101571.38
2023-01-25T13:07:31.887Z,101576.72
2023-01-25T13:10:04.480Z,101565.31
2023-01-25T13:12:52.264Z,101569.69
2023-01-25T13:15:38.440Z,101565.41
2023-01-25T13:18:42.693Z,101568.84
2023-01-25T13:21:32.198Z,101573.06
2023-01-25T13:24:21.217Z,101568.78
2023-01-25T13:27:00.389Z,101566.94
2023-01-25T13:30:03.396Z,101572.16
2023-01-25T13:33:07.522Z,101586.06
2023-01-25T13:35:41.124Z,101582.69
2023-01-25T13:38:27.528Z,101588.69
2023-01-25T13:41:13.061Z,101580.94
2023-01-25T13:43:42.413Z,101592.97
2023-01-25T13:46:13.681Z,101581.84
2023-01-25T13:49:08.174Z,101580.31
2023-01-25T13:51:40.695Z,101578.47
2023-01-25T13:54:17.596Z,101581.06
2023-01-25T13:56:45.945Z,101581.00
2023-01-25T13:59:27.330Z,101587.97
2023-01-25T14:01:57.205Z,101581.13
2023-01-25T14:04:26.897Z,101579.44
2023-01-25T14:06:58.962Z,101586.47
2023-01-25T14:09:27.072Z,101592.59
2023-01-25T14:11:59.982Z,101596.22
2023-01-25T14:14:32.545Z,101583.16
2023-01-25T14:17:14.358Z,101581.38
2023-01-25T14:19:45.730Z,101573.59
2023-01-25T14:22:26.368Z,101572.88
2023-01-25T14:25:14.094Z,101567.81
2023-01-25T14:27:47.747Z,101585.09
2023-01-25T14:30:21.579Z,101570.47
2023-01-25T14:32:51.157Z,101576.31
2023-01-25T14:35:42.843Z,101572.16
2023-01-25T14:38:36.935Z,101560.16
2023-01-25T14:41:13.540Z,101567.16
2023-01-25T14:43:45.417Z,101563.56
2023-01-25T14:46:21.299Z,101566.28
2023-01-25T14:48:49.855Z,101562.81
2023-01-25T14:51:27.419Z,101554.94
2023-01-25T14:54:01.124Z,101561.88
2023-01-25T14:56:36.376Z,101568.00
2023-01-25T14:59:06.370Z,101564.69
2023-01-25T15:01:40.128Z,101571.63
2023-01-25T15:04:12.953Z,101561.16
2023-01-25T15:06:50.884Z,101549.28
2023-01-25T15:09:33.194Z,101557.88
2023-01-25T15:12:02.944Z,101555.19
2023-01-25T15:14:30.888Z,101551.69
2023-01-25T15:16:58.801Z,101537.94
2023-01-25T15:19:30.089Z,101529.38
2023-01-25T15:22:01.154Z,101547.41
2023-01-25T15:24:29.394Z,101544.88
2023-01-25T15:26:57.456Z,101552.72
2023-01-25T15:29:27.146Z,101557.94
2023-01-25T15:31:57.112Z,101561.34
2023-01-25T15:34:29.265Z,101550.31
2023-01-25T15:36:57.368Z,101540.03
2023-01-25T15:39:27.932Z,101544.31
2023-01-25T15:41:55.924Z,101535.59
2023-01-25T15:44:23.901Z,101542.59
2023-01-25T15:46:53.647Z,101539.13
2023-01-25T15:49:26.213Z,101534.91
2023-01-25T15:51:54.122Z,101527.94
2023-01-25T15:54:22.332Z,101534.00
2023-01-25T15:56:55.906Z,101519.38
2023-01-25T15:59:23.988Z,101522.84
2023-01-25T16:01:52.025Z,101521.25
2023-01-25T16:04:19.885Z,101511.63
2023-01-25T16:06:50.828Z,101523.00
2023-01-25T16:09:21.526Z,101517.78
2023-01-25T16:11:54.108Z,101524.81
2023-01-25T16:14:29.044Z,101524.03
2023-01-25T16:17:02.598Z,101530.97
2023-01-25T16:19:31.125Z,101528.31
2023-01-25T16:21:59.481Z,101528.59
2023-01-25T16:24:27.528Z,101531.25
2023-01-25T16:27:04.295Z,101538.25
2023-01-25T16:29:35.088Z,101525.41
2023-01-25T16:32:05.179Z,101528.00
2023-01-25T16:34:33.122Z,101532.28
2023-01-25T16:37:01.891Z,101528.00
2023-01-25T16:39:29.838Z,101519.28
2023-01-25T16:41:59.553Z,101514.16
2023-01-25T16:44:27.640Z,101505.66
2023-01-25T16:46:56.421Z,101507.31
2023-01-25T16:49:26.601Z,101490.88
2023-01-25T16:51:54.971Z,101495.19
2023-01-25T16:54:23.518Z,101490.06
2023-01-25T16:56:52.424Z,101498.81
2023-01-25T16:59:23.337Z,101493.66
2023-01-25T17:01:51.357Z,101497.19
2023-01-25T17:04:20.196Z,101497.25
2023-01-25T17:06:49.955Z,101499.78
2023-01-25T17:09:24.964Z,101490.31
2023-01-25T17:11:53.413Z,101498.94
2023-01-25T17:14:23.654Z,101499.84
2023-01-25T17:16:55.116Z,101499.16
2023-01-25T17:19:23.536Z,101500.88
2023-01-25T17:21:51.504Z,101500.75
2023-01-25T17:24:21.583Z,101498.28
2023-01-25T17:26:49.718Z,101500.81
2023-01-25T17:29:17.926Z,101502.59
2023-01-25T17:31:47.226Z,101504.34
2023-01-25T17:34:19.349Z,101494.88
2023-01-25T17:36:47.708Z,101506.94
2023-01-25T17:39:17.425Z,101507.00
2023-01-25T17:41:46.761Z,101506.13
2023-01-25T17:44:20.112Z,101504.41
2023-01-25T17:46:50.669Z,101490.50
2023-01-25T17:49:19.228Z,101500.00
2023-01-25T17:51:47.458Z,101500.91
2023-01-25T17:54:18.729Z,101508.72
2023-01-25T17:56:49.786Z,101500.97
2023-01-25T17:59:17.711Z,101500.13
2023-01-25T18:01:45.773Z,101499.31
2023-01-25T18:04:17.631Z,101502.66
2023-01-25T18:06:45.636Z,101502.66
2023-01-25T18:09:13.558Z,101515.72
2023-01-25T18:11:41.808Z,101507.91
2023-01-25T18:14:12.684Z,101520.06
2023-01-25T18:16:41.938Z,101509.72
2023-01-25T18:19:10.141Z,101518.31
2023-01-25T18:21:40.881Z,101521.81
2023-01-25T18:24:25.162Z,101518.38
2023-01-25T18:26:55.476Z,101504.66
2023-01-25T18:29:37.658Z,101506.44
2023-01-25T18:32:06.650Z,101508.22
2023-01-25T18:34:37.512Z,101508.28
2023-01-25T18:37:19.259Z,101514.41
2023-01-25T18:39:47.926Z,101510.03
2023-01-25T18:42:16.223Z,101510.94
2023-01-25T18:44:48.467Z,101510.94
2023-01-25T18:47:18.692Z,101514.47
2023-01-25T18:49:46.906Z,101513.03
2023-01-25T18:52:22.490Z,101505.03
2023-01-25T18:54:50.536Z,101499.00
2023-01-25T18:57:18.678Z,101499.94
2023-01-25T18:59:46.579Z,101499.81
2023-01-25T19:02:16.952Z,101499.00
2023-01-25T19:04:45.522Z,101508.66
2023-01-25T19:07:13.632Z,101502.53
2023-01-25T19:09:43.792Z,101500.03
2023-01-25T19:12:11.861Z,101502.63
2023-01-25T19:14:41.765Z,101499.94
2023-01-25T19:17:09.823Z,101498.25
2023-01-25T19:19:37.772Z,101509.50
2023-01-25T19:22:05.738Z,101499.13
2023-01-25T19:24:33.822Z,101487.94
2023-01-25T19:27:03.439Z,101493.94
2023-01-25T19:29:31.475Z,101484.47
2023-01-25T19:32:05.184Z,101485.16
2023-01-25T19:34:33.601Z,101483.34
2023-01-25T19:37:03.367Z,101488.59
2023-01-25T19:39:32.763Z,101486.91
2023-01-25T19:42:02.158Z,101487.75
2023-01-25T19:44:30.078Z,101487.81
2023-01-25T19:46:58.009Z,101482.56
2023-01-25T19:49:25.934Z,101486.91
2023-01-25T19:51:54.038Z,101485.09
2023-01-25T19:54:23.099Z,101477.38
2023-01-25T19:56:51.342Z,101478.28
2023-01-25T19:59:22.120Z,101479.09
2023-01-25T20:01:50.207Z,101470.44
2023-01-25T20:04:20.738Z,101468.72
2023-01-25T20:06:49.456Z,101469.56
2023-01-25T20:09:19.796Z,101460.09
2023-01-25T20:11:47.759Z,101468.88
2023-01-25T20:14:16.656Z,101456.00
2023-01-25T20:16:47.217Z,101458.47
2023-01-25T20:19:15.208Z,101458.47
2023-01-25T20:21:43.120Z,101460.22
2023-01-25T20:24:11.403Z,101456.84
2023-01-25T20:26:42.770Z,101456.00
2023-01-25T20:29:12.242Z,101461.16
2023-01-25T20:31:42.336Z,101457.69
2023-01-25T20:34:15.019Z,101463.75
2023-01-25T20:36:43.965Z,101463.75
2023-01-25T20:39:16.751Z,101462.88
2023-01-25T20:41:45.205Z,101468.00
2023-01-25T20:44:14.487Z,101465.41
2023-01-25T20:46:44.081Z,101465.41
2023-01-25T20:49:16.389Z,101468.94
2023-01-25T20:51:44.381Z,101471.47
2023-01-25T20:54:12.439Z,101470.56
2023-01-25T20:56:40.609Z,101484.47
2023-01-25T20:59:08.676Z,101486.06
2023-01-25T21:01:37.469Z,101479.16
2023-01-25T21:04:09.603Z,101476.56
2023-01-25T21:06:39.467Z,101478.34
2023-01-25T21:09:07.692Z,101479.09
2023-01-25T21:11:35.685Z,101477.38
2023-01-25T21:14:03.682Z,101473.78
2023-01-25T21:16:31.614Z,101480.75
2023-01-25T21:19:01.399Z,101469.44
2023-01-25T21:21:30.830Z,101476.31
2023-01-25T21:24:02.713Z,101478.91
2023-01-25T21:26:32.012Z,101480.63
2023-01-25T21:29:01.582Z,101488.44
2023-01-25T21:31:30.886Z,101480.69
2023-01-25T21:33:58.833Z,101483.28
2023-01-25T21:36:27.238Z,101480.63
2023-01-25T21:38:56.382Z,101484.97
2023-01-25T21:41:29.071Z,101474.66
2023-01-25T21:44:16.695Z,101469.38
2023-01-25T21:47:06.024Z,101475.44
2023-01-25T21:49:50.526Z,101466.00
2023-01-25T21:52:18.502Z,101480.69
2023-01-25T21:54:46.445Z,101478.09
2023-01-25T21:57:15.918Z,101472.03
2023-01-25T21:59:43.916Z,101479.03
2023-01-25T22:02:14.819Z,101487.75
2023-01-25T22:04:42.856Z,101490.34
2023-01-25T22:07:11.609Z,101497.28
2023-01-25T22:09:39.701Z,101493.81
2023-01-25T22:12:07.894Z,101473.84
2023-01-25T22:14:37.281Z,101479.91
2023-01-25T22:17:05.235Z,101485.16
2023-01-25T22:19:33.396Z,101482.56
2023-01-25T22:22:01.363Z,101489.44
2023-01-25T22:24:29.214Z,101491.28
2023-01-25T22:27:04.800Z,101489.56
2023-01-25T22:29:37.148Z,101494.75
2023-01-25T22:32:05.535Z,101499.94
2023-01-25T22:34:33.456Z,101489.66
2023-01-25T22:37:01.392Z,101488.00
2023-01-25T22:39:29.529Z,101485.41
2023-01-25T22:41:57.504Z,101485.34
2023-01-25T22:44:25.434Z,101487.94
2023-01-25T22:46:54.714Z,101488.00
2023-01-25T22:49:22.547Z,101493.13
2023-01-25T22:51:50.494Z,101488.84
2023-01-25T22:54:18.529Z,101488.84
2023-01-25T22:56:46.520Z,101495.78
2023-01-25T22:59:18.864Z,101500.16
2023-01-25T23:01:47.331Z,101500.16
2023-01-25T23:04:16.733Z,101512.28
2023-01-25T23:06:44.811Z,101514.94
2023-01-25T23:09:12.767Z,101508.84
2023-01-25T23:11:40.714Z,101500.22
2023-01-25T23:14:27.523Z,101492.38
2023-01-25T23:17:15.905Z,101493.25
2023-01-25T23:19:44.241Z,101496.75
2023-01-25T23:22:12.127Z,101500.22
2023-01-25T23:24:40.085Z,101503.63
2023-01-25T23:27:09.382Z,101502.81
2023-01-25T23:29:37.280Z,101494.16
2023-01-25T23:32:05.333Z,101495.09
2023-01-25T23:34:34.970Z,101492.50
2023-01-25T23:37:04.467Z,101495.03
2023-01-25T23:39:32.384Z,101501.97
2023-01-25T23:42:00.220Z,101494.16
2023-01-25T23:44:28.227Z,101499.38
2023-01-25T23:46:56.162Z,101499.38
2023-01-25T23:49:26.561Z,101497.63
2023-01-25T23:51:54.552Z,101501.09
2023-01-25T23:54:23.961Z,101505.47
2023-01-25T23:56:51.973Z,101496.69
2023-01-25T23:59:20.039Z,101497.63
